createdAt,value
2022-11-02T00:00:43.205Z,52921.79
2022-11-02T00:01:46.236Z,52929.81
2022-11-02T00:02:49.003Z,52904.76
2022-11-02T00:03:51.821Z,52900.75
2022-11-02T00:04:54.796Z,52879.71
2022-11-02T00:05:57.667Z,52888.73
2022-11-02T00:07:00.445Z,52914.78
2022-11-02T00:08:03.013Z,52918.79
2022-11-02T00:09:05.991Z,52897.75
2022-11-02T00:10:08.863Z,52905.76
2022-11-02T00:11:11.734Z,52931.82
2022-11-02T00:12:14.509Z,52945.84
2022-11-02T00:13:17.389Z,52905.76
2022-11-02T00:14:20.173Z,52881.71
2022-11-02T00:15:23.133Z,52913.78
2022-11-02T00:16:26.214Z,52884.72
2022-11-02T00:17:29.291Z,52887.73
2022-11-02T00:18:32.272Z,52911.77
2022-11-02T00:19:35.347Z,52911.77
2022-11-02T00:20:38.427Z,52837.62
2022-11-02T00:21:41.824Z,52907.77
2022-11-02T00:22:45.195Z,52880.71
2022-11-02T00:23:48.282Z,52906.77
2022-11-02T00:24:51.362Z,52880.71
2022-11-02T00:25:54.750Z,52842.64
2022-11-02T00:26:57.830Z,52884.72
2022-11-02T00:28:00.597Z,52879.71
2022-11-02T00:29:03.667Z,52912.78
2022-11-02T00:30:06.444Z,52886.72
2022-11-02T00:31:09.317Z,52861.67
2022-11-02T00:32:12.093Z,52862.68
2022-11-02T00:33:15.180Z,52898.75
2022-11-02T00:34:17.959Z,52888.73
2022-11-02T00:35:21.029Z,52899.75
2022-11-02T00:36:24.004Z,52880.71
2022-11-02T00:37:27.256Z,52910.77
2022-11-02T00:38:30.169Z,52892.73
2022-11-02T00:39:32.742Z,52897.75
2022-11-02T00:40:35.502Z,52849.65
2022-11-02T00:41:38.492Z,52886.72
2022-11-02T00:42:41.466Z,52914.78
2022-11-02T00:43:44.238Z,52871.70
2022-11-02T00:44:47.100Z,52875.70
2022-11-02T00:45:50.182Z,52885.72
2022-11-02T00:46:53.290Z,52866.68
2022-11-02T00:47:55.941Z,52883.72
2022-11-02T00:48:59.422Z,52895.74
2022-11-02T00:50:02.400Z,52866.68
2022-11-02T00:51:05.574Z,52866.68
2022-11-02T00:52:08.251Z,52858.67
2022-11-02T00:53:11.121Z,52867.68
2022-11-02T00:54:13.909Z,52907.77
2022-11-02T00:55:16.971Z,52874.70
2022-11-02T00:56:20.065Z,52883.72
2022-11-02T00:57:23.237Z,52863.68
2022-11-02T00:58:26.207Z,52918.79
2022-11-02T00:59:29.293Z,52905.76
2022-11-02T01:00:32.186Z,52895.74
2022-11-02T01:01:35.516Z,52899.75
2022-11-02T01:02:38.552Z,52903.76
2022-11-02T01:03:41.614Z,52907.77
2022-11-02T01:04:44.683Z,52878.71
2022-11-02T01:05:47.665Z,52867.68
2022-11-02T01:06:50.741Z,52876.70
2022-11-02T01:07:53.922Z,52871.70
2022-11-02T01:08:56.591Z,52881.71
2022-11-02T01:09:59.670Z,52861.67
2022-11-02T01:11:02.759Z,52872.70
2022-11-02T01:12:05.528Z,52866.68
2022-11-02T01:13:08.507Z,52903.76
2022-11-02T01:14:11.687Z,52879.71
2022-11-02T01:15:14.379Z,52884.72
2022-11-02T01:16:17.237Z,52876.70
2022-11-02T01:17:20.105Z,52883.72
2022-11-02T01:18:23.392Z,52904.76
2022-11-02T01:19:26.576Z,52862.68
2022-11-02T01:20:29.748Z,52881.71
2022-11-02T01:21:33.109Z,52859.67
2022-11-02T01:22:36.320Z,52880.71
2022-11-02T01:23:39.202Z,52842.64
2022-11-02T01:24:41.973Z,52893.74
2022-11-02T01:25:45.153Z,52903.76
2022-11-02T01:26:48.027Z,52875.70
2022-11-02T01:27:50.691Z,52899.75
2022-11-02T01:28:53.986Z,52857.67
2022-11-02T01:29:58.391Z,52857.67
2022-11-02T01:31:01.164Z,52845.64
2022-11-02T01:32:04.337Z,52866.68
2022-11-02T01:33:07.520Z,52885.72
2022-11-02T01:34:10.299Z,52822.59
2022-11-02T01:35:13.180Z,52892.73
2022-11-02T01:36:19.078Z,52875.70
2022-11-02T01:37:22.096Z,52835.62
2022-11-02T01:38:24.968Z,52900.75
2022-11-02T01:39:28.263Z,52855.66
2022-11-02T01:40:31.442Z,52835.62
2022-11-02T01:41:34.416Z,52859.67
2022-11-02T01:42:37.593Z,52876.70
2022-11-02T01:43:40.774Z,52848.65
2022-11-02T01:44:43.963Z,52831.61
2022-11-02T01:45:47.140Z,52847.64
2022-11-02T01:46:50.216Z,52986.93
2022-11-02T01:47:53.405Z,52898.75
2022-11-02T01:48:56.691Z,52939.83
2022-11-02T01:50:00.179Z,52919.79
2022-11-02T01:51:03.256Z,52853.66
2022-11-02T01:52:06.753Z,52927.80
2022-11-02T01:53:09.717Z,52924.80
2022-11-02T01:54:12.808Z,52894.74
2022-11-02T01:55:15.887Z,52933.82
2022-11-02T01:56:18.948Z,52857.67
2022-11-02T01:57:22.245Z,52809.57
2022-11-02T01:58:25.839Z,52857.67
2022-11-02T01:59:28.911Z,52822.59
2022-11-02T02:00:32.002Z,52919.79
2022-11-02T02:01:35.078Z,52827.61
2022-11-02T02:02:38.111Z,52841.63
2022-11-02T02:03:41.234Z,52830.61
2022-11-02T02:04:44.116Z,52857.67
2022-11-02T02:05:46.878Z,52837.62
2022-11-02T02:06:49.756Z,52847.64
2022-11-02T02:07:52.436Z,52862.68
2022-11-02T02:08:55.405Z,52833.62
2022-11-02T02:09:58.281Z,52842.64
2022-11-02T02:11:01.149Z,52841.63
2022-11-02T02:12:04.336Z,52831.61
2022-11-02T02:13:07.316Z,52853.66
2022-11-02T02:14:10.188Z,52843.64
2022-11-02T02:15:13.164Z,52858.67
2022-11-02T02:16:16.052Z,52890.73
2022-11-02T02:17:18.907Z,52832.62
2022-11-02T02:18:21.688Z,52858.67
2022-11-02T02:19:25.289Z,52818.59
2022-11-02T02:20:27.840Z,52835.62
2022-11-02T02:21:30.609Z,52857.67
2022-11-02T02:22:33.384Z,52819.59
2022-11-02T02:23:36.173Z,52887.73
2022-11-02T02:24:38.719Z,52865.68
2022-11-02T02:25:41.292Z,52864.68
2022-11-02T02:26:43.859Z,52847.64
2022-11-02T02:27:46.736Z,52845.64
2022-11-02T02:28:49.905Z,52859.67
2022-11-02T02:29:52.703Z,52839.63
2022-11-02T02:30:55.567Z,52877.71
2022-11-02T02:31:58.339Z,52839.63
2022-11-02T02:33:01.019Z,52815.58
2022-11-02T02:34:04.091Z,52830.61
2022-11-02T02:35:06.953Z,52897.75
2022-11-02T02:36:09.936Z,52821.59
2022-11-02T02:37:12.918Z,52906.77
2022-11-02T02:38:15.682Z,52968.89
2022-11-02T02:39:18.561Z,52883.72
2022-11-02T02:40:21.436Z,52895.74
2022-11-02T02:41:24.314Z,52836.62
2022-11-02T02:42:27.188Z,52856.66
2022-11-02T02:43:30.063Z,52911.77
2022-11-02T02:44:33.134Z,52861.67
2022-11-02T02:45:36.213Z,52883.72
2022-11-02T02:46:41.937Z,52859.67
2022-11-02T02:47:43.803Z,52890.73
2022-11-02T02:48:46.784Z,52943.84
2022-11-02T02:49:49.865Z,52940.83
2022-11-02T02:50:54.074Z,52933.82
2022-11-02T02:51:57.457Z,52925.80
2022-11-02T02:53:00.237Z,52917.79
2022-11-02T02:54:03.406Z,52847.64
2022-11-02T02:55:07.431Z,52903.76
2022-11-02T02:56:10.193Z,52889.73
2022-11-02T02:57:19.458Z,52855.66
2022-11-02T02:58:22.706Z,52838.62
2022-11-02T02:59:25.467Z,52849.65
2022-11-02T03:00:28.334Z,52857.67
2022-11-02T03:01:31.329Z,52865.68
2022-11-02T03:02:34.351Z,52864.68
2022-11-02T03:03:37.413Z,52840.63
2022-11-02T03:04:40.453Z,52864.68
2022-11-02T03:05:43.329Z,52834.62
2022-11-02T03:06:46.407Z,52870.69
2022-11-02T03:07:49.482Z,52867.68
2022-11-02T03:08:52.474Z,52843.64
2022-11-02T03:09:55.542Z,52847.64
2022-11-02T03:10:58.420Z,52840.63
2022-11-02T03:12:01.413Z,52873.70
2022-11-02T03:13:04.369Z,52923.80
2022-11-02T03:14:07.246Z,52905.76
2022-11-02T03:15:10.327Z,52938.83
2022-11-02T03:16:13.004Z,52907.77
2022-11-02T03:17:15.875Z,52951.86
2022-11-02T03:18:18.847Z,52962.88
2022-11-02T03:19:21.829Z,52861.67
2022-11-02T03:20:25.114Z,52837.62
2022-11-02T03:21:28.091Z,52888.73
2022-11-02T03:22:31.067Z,52920.79
2022-11-02T03:23:34.140Z,52941.84
2022-11-02T03:24:37.126Z,52870.69
2022-11-02T03:25:40.098Z,52861.67
2022-11-02T03:26:43.175Z,52843.64
2022-11-02T03:27:46.467Z,52839.63
2022-11-02T03:28:49.243Z,52828.61
2022-11-02T03:29:52.116Z,52881.71
2022-11-02T03:30:55.083Z,52832.62
2022-11-02T03:31:58.574Z,52927.80
2022-11-02T03:33:01.579Z,52859.67
2022-11-02T03:34:04.898Z,52910.77
2022-11-02T03:35:08.231Z,52903.76
2022-11-02T03:36:11.099Z,52936.82
2022-11-02T03:37:13.987Z,52858.67
2022-11-02T03:38:16.842Z,52911.77
2022-11-02T03:39:20.134Z,52951.86
2022-11-02T03:40:23.431Z,52933.82
2022-11-02T03:41:26.394Z,52930.81
2022-11-02T03:42:29.580Z,52843.64
2022-11-02T03:43:32.568Z,52917.79
2022-11-02T03:44:35.837Z,52920.79
2022-11-02T03:45:38.920Z,52858.67
2022-11-02T03:46:42.402Z,52892.73
2022-11-02T03:47:45.588Z,52841.63
2022-11-02T03:48:48.976Z,52895.74
2022-11-02T03:49:52.055Z,52881.71
2022-11-02T03:50:55.439Z,52871.70
2022-11-02T03:51:58.214Z,52874.70
2022-11-02T03:53:01.083Z,52891.73
2022-11-02T03:54:04.264Z,52847.64
2022-11-02T03:55:07.857Z,52849.65
2022-11-02T03:56:10.628Z,52865.68
2022-11-02T03:57:13.508Z,52884.72
2022-11-02T03:58:16.684Z,52841.63
2022-11-02T03:59:19.359Z,52879.71
2022-11-02T04:00:22.342Z,52887.73
2022-11-02T04:01:25.621Z,52873.70
2022-11-02T04:02:28.892Z,52828.61
2022-11-02T04:03:33.209Z,52841.63
2022-11-02T04:04:35.876Z,52829.61
2022-11-02T04:05:38.748Z,52836.62
2022-11-02T04:06:41.849Z,52843.64
2022-11-02T04:07:48.252Z,52859.67
2022-11-02T04:08:49.427Z,52850.65
2022-11-02T04:09:52.506Z,52801.55
2022-11-02T04:10:56.191Z,52810.57
2022-11-02T04:12:02.553Z,52854.66
2022-11-02T04:13:05.425Z,52853.66
2022-11-02T04:14:09.540Z,52847.64
2022-11-02T04:15:12.528Z,52879.71
2022-11-02T04:16:15.171Z,52878.71
2022-11-02T04:17:17.936Z,52888.73
2022-11-02T04:18:20.742Z,52916.79
2022-11-02T04:19:24.439Z,52941.84
2022-11-02T04:20:27.810Z,52868.69
2022-11-02T04:21:30.991Z,52860.67
2022-11-02T04:22:33.867Z,52846.64
2022-11-02T04:23:36.733Z,52881.71
2022-11-02T04:24:40.029Z,52869.69
2022-11-02T04:25:42.988Z,52925.80
2022-11-02T04:26:45.995Z,52826.61
2022-11-02T04:27:48.749Z,52876.70
2022-11-02T04:28:51.830Z,52889.73
2022-11-02T04:29:55.315Z,52834.62
2022-11-02T04:30:58.612Z,52901.75
2022-11-02T04:32:01.885Z,52906.77
2022-11-02T04:33:04.660Z,52877.71
2022-11-02T04:34:07.736Z,52887.73
2022-11-02T04:35:10.723Z,52840.63
2022-11-02T04:36:14.410Z,52841.63
2022-11-02T04:37:17.388Z,52867.68
2022-11-02T04:38:20.161Z,52843.64
2022-11-02T04:39:23.863Z,52853.66
2022-11-02T04:40:27.450Z,52908.77
2022-11-02T04:41:31.318Z,52916.79
2022-11-02T04:42:34.428Z,52860.67
2022-11-02T04:43:37.096Z,52865.68
2022-11-02T04:44:39.965Z,52853.66
2022-11-02T04:45:42.948Z,52853.66
2022-11-02T04:46:45.812Z,52851.65
2022-11-02T04:47:48.589Z,52861.67
2022-11-02T04:48:51.484Z,52852.66
2022-11-02T04:49:54.135Z,52926.80
2022-11-02T04:50:57.324Z,52901.75
2022-11-02T04:52:00.298Z,52878.71
2022-11-02T04:53:03.988Z,52860.67
2022-11-02T04:54:06.783Z,52834.62
2022-11-02T04:55:09.840Z,52857.67
2022-11-02T04:56:13.242Z,52860.67
2022-11-02T04:57:16.106Z,52862.68
2022-11-02T04:58:19.093Z,52824.60
2022-11-02T04:59:22.057Z,52848.65
2022-11-02T05:00:25.260Z,52855.66
2022-11-02T05:01:28.790Z,52844.64
2022-11-02T05:02:31.849Z,52851.65
2022-11-02T05:03:34.577Z,52840.63
2022-11-02T05:04:37.658Z,52856.66
2022-11-02T05:05:40.760Z,52892.73
2022-11-02T05:06:44.125Z,52883.72
2022-11-02T05:07:47.622Z,52882.71
2022-11-02T05:08:51.221Z,52861.67
2022-11-02T05:09:54.282Z,52870.69
2022-11-02T05:10:57.586Z,52864.68
2022-11-02T05:12:00.448Z,52877.71
2022-11-02T05:13:03.415Z,52908.77
2022-11-02T05:14:08.836Z,52902.76
2022-11-02T05:15:11.726Z,52899.75
2022-11-02T05:16:15.229Z,52886.72
2022-11-02T05:17:18.394Z,52882.71
2022-11-02T05:19:24.661Z,52886.72
2022-11-02T05:20:27.441Z,52885.72
2022-11-02T05:21:30.739Z,52865.68
2022-11-02T05:22:34.008Z,52881.71
2022-11-02T05:23:37.392Z,52858.67
2022-11-02T05:24:40.161Z,52924.80
2022-11-02T05:25:43.134Z,52886.72
2022-11-02T05:26:51.177Z,52867.68
2022-11-02T05:27:51.448Z,52861.67
2022-11-02T05:28:54.634Z,52858.67
2022-11-02T05:29:58.334Z,52933.82
2022-11-02T05:31:02.367Z,52857.67
2022-11-02T05:32:05.506Z,52857.67
2022-11-02T05:33:08.785Z,52877.71
2022-11-02T05:34:11.463Z,52883.72
2022-11-02T05:35:14.742Z,52900.75
2022-11-02T05:36:17.622Z,52889.73
2022-11-02T05:37:20.385Z,52866.68
2022-11-02T05:38:23.514Z,52879.71
2022-11-02T05:39:26.548Z,52875.70
2022-11-02T05:40:29.536Z,52886.72
2022-11-02T05:41:32.711Z,52898.75
2022-11-02T05:42:36.828Z,52880.71
2022-11-02T05:43:40.108Z,52884.72
2022-11-02T05:44:43.268Z,52873.70
2022-11-02T05:45:46.893Z,52877.71
2022-11-02T05:46:50.614Z,52886.72
2022-11-02T05:47:54.389Z,52897.75
2022-11-02T05:48:58.400Z,52894.74
2022-11-02T05:50:01.360Z,52903.76
2022-11-02T05:51:04.644Z,52870.69
2022-11-02T05:52:07.815Z,52876.70
2022-11-02T05:53:10.981Z,52904.76
2022-11-02T05:54:14.299Z,52876.70
2022-11-02T05:55:17.766Z,52894.74
2022-11-02T05:56:25.347Z,52917.79
2022-11-02T05:57:29.253Z,52901.75
2022-11-02T05:58:32.455Z,52851.65
2022-11-02T05:59:35.932Z,52901.75
2022-11-02T06:00:42.129Z,52914.78
2022-11-02T06:01:45.250Z,52897.75
2022-11-02T06:02:48.532Z,52895.74
2022-11-02T06:03:53.946Z,52925.80
2022-11-02T06:04:57.415Z,52894.74
2022-11-02T06:06:00.748Z,52878.71
2022-11-02T06:07:04.129Z,52882.71
2022-11-02T06:08:07.213Z,52879.71
2022-11-02T06:09:09.983Z,52873.70
2022-11-02T06:10:12.965Z,52888.73
2022-11-02T06:11:15.935Z,52883.72
2022-11-02T06:12:19.012Z,52893.74
2022-11-02T06:13:22.189Z,52934.82
2022-11-02T06:14:25.290Z,52923.80
2022-11-02T06:15:28.877Z,52917.79
2022-11-02T06:16:37.109Z,52943.84
2022-11-02T06:17:40.346Z,52928.81
2022-11-02T06:18:43.323Z,52957.87
2022-11-02T06:19:46.720Z,52930.81
2022-11-02T06:20:50.650Z,52934.82
2022-11-02T06:21:53.996Z,52895.74
2022-11-02T06:22:57.493Z,52935.82
2022-11-02T06:24:12.172Z,52928.81
2022-11-02T06:26:38.203Z,52945.84
2022-11-02T06:27:45.939Z,52944.84
2022-11-02T06:28:49.778Z,52926.80
2022-11-02T06:29:52.625Z,52917.79
2022-11-02T06:32:21.266Z,52917.79
2022-11-02T06:33:26.579Z,52882.71
2022-11-02T06:34:31.367Z,52877.71
2022-11-02T06:35:34.257Z,52899.75
2022-11-02T06:36:39.427Z,52906.77
2022-11-02T06:37:42.848Z,52911.77
2022-11-02T06:38:53.818Z,52911.77
2022-11-02T06:39:57.252Z,52895.74
2022-11-02T06:41:00.394Z,52931.82
2022-11-02T06:42:03.779Z,52907.77
2022-11-02T06:43:17.377Z,52921.79
2022-11-02T06:44:33.491Z,52898.75
2022-11-02T06:45:36.668Z,52933.82
2022-11-02T06:46:44.777Z,52897.75
2022-11-02T06:47:47.946Z,52892.73
2022-11-02T06:48:54.178Z,52933.82
2022-11-02T06:50:00.225Z,52918.79
2022-11-02T06:51:02.947Z,52902.76
2022-11-02T06:52:06.110Z,52934.82
2022-11-02T06:53:10.113Z,52981.92
2022-11-02T06:54:13.082Z,52946.84
2022-11-02T06:55:16.881Z,52961.87
2022-11-02T06:56:20.066Z,52947.85
2022-11-02T07:00:06.940Z,52966.89
2022-11-02T07:01:10.864Z,52933.82
2022-11-02T07:02:20.986Z,52941.84
2022-11-02T07:03:24.634Z,52911.77
2022-11-02T07:04:29.415Z,52913.78
2022-11-02T07:05:33.735Z,52956.86
2022-11-02T07:06:37.331Z,52951.86
2022-11-02T07:07:43.173Z,52939.83
2022-11-02T07:08:47.262Z,52911.77
2022-11-02T07:09:51.071Z,52973.90
2022-11-02T07:10:55.283Z,52913.78
2022-11-02T07:11:59.192Z,52915.78
2022-11-02T07:13:07.898Z,52923.80
2022-11-02T07:14:16.054Z,52921.79
2022-11-02T07:15:19.586Z,52922.80
2022-11-02T07:16:23.885Z,52950.85
2022-11-02T07:17:32.160Z,52919.79
2022-11-02T07:18:32.818Z,52927.80
2022-11-02T07:19:35.987Z,52933.82
2022-11-02T07:20:40.097Z,52946.84
2022-11-02T07:21:46.604Z,52969.89
2022-11-02T07:22:48.305Z,52914.78
2022-11-02T07:23:58.560Z,52936.82
2022-11-02T07:25:02.550Z,52939.83
2022-11-02T07:26:07.221Z,52939.83
2022-11-02T07:27:10.355Z,52952.86
2022-11-02T07:28:13.101Z,52940.83
2022-11-02T07:29:17.120Z,52932.82
2022-11-02T07:30:19.996Z,52936.82
2022-11-02T07:31:23.700Z,52927.80
2022-11-02T07:32:27.083Z,52946.84
2022-11-02T07:33:29.739Z,52939.83
2022-11-02T07:34:32.725Z,52935.82
2022-11-02T07:35:41.671Z,52973.90
2022-11-02T07:36:45.763Z,52972.90
2022-11-02T07:37:48.925Z,52960.88
2022-11-02T07:38:52.102Z,52967.89
2022-11-02T07:39:57.680Z,52912.78
2022-11-02T07:41:08.599Z,52923.80
2022-11-02T07:42:14.629Z,52970.89
2022-11-02T07:43:18.343Z,52952.86
2022-11-02T07:44:23.089Z,52956.86
2022-11-02T07:45:26.964Z,52951.86
2022-11-02T07:46:37.936Z,52993.94
2022-11-02T07:47:44.074Z,52952.86
2022-11-02T07:48:47.860Z,52963.88
2022-11-02T07:51:12.363Z,52985.92
2022-11-02T07:52:18.243Z,52987.93
2022-11-02T07:53:21.209Z,52939.83
2022-11-02T07:54:24.781Z,52981.92
2022-11-02T07:55:28.155Z,52972.90
2022-11-02T07:56:32.052Z,52952.86
2022-11-02T07:57:35.901Z,52984.92
2022-11-02T07:58:43.758Z,53005.96
2022-11-02T07:59:50.510Z,52998.95
2022-11-02T08:00:59.624Z,52959.87
2022-11-02T08:02:00.080Z,52972.90
2022-11-02T08:03:08.635Z,52960.88
2022-11-02T08:04:13.036Z,52927.80
2022-11-02T08:05:22.091Z,52980.91
2022-11-02T08:06:25.163Z,52985.92
2022-11-02T08:07:30.929Z,52989.93
2022-11-02T08:08:35.625Z,52972.90
2022-11-02T08:09:39.331Z,52979.91
2022-11-02T08:10:45.981Z,52954.86
2022-11-02T08:11:51.727Z,52973.90
2022-11-02T08:14:17.572Z,52978.91
2022-11-02T08:15:34.670Z,52981.92
2022-11-02T08:16:49.199Z,52972.90
2022-11-02T08:17:52.899Z,53011.98
2022-11-02T08:19:00.884Z,52997.95
2022-11-02T08:21:39.714Z,52977.91
2022-11-02T08:24:07.105Z,52977.91
2022-11-02T08:26:26.567Z,53025.00
2022-11-02T08:27:35.354Z,52979.91
2022-11-02T08:31:19.778Z,53023.00
2022-11-02T08:32:31.640Z,52985.92
2022-11-02T08:33:35.530Z,52997.95
2022-11-02T08:34:46.800Z,53039.03
2022-11-02T08:37:22.541Z,52989.93
2022-11-02T08:39:46.537Z,52976.91
2022-11-02T08:42:11.831Z,53022.00
2022-11-02T08:43:23.232Z,53022.00
2022-11-02T08:44:37.681Z,53009.97
2022-11-02T08:49:42.488Z,52963.88
2022-11-02T08:56:22.106Z,53013.98
2022-11-02T08:57:26.485Z,53001.96
2022-11-02T08:58:32.066Z,53024.00
2022-11-02T08:59:38.892Z,52983.92
2022-11-02T09:02:07.705Z,53002.96
2022-11-02T09:12:54.439Z,53023.00
2022-11-02T09:14:12.154Z,53032.02
2022-11-02T09:16:43.949Z,53003.96
2022-11-02T09:17:52.585Z,53029.01
2022-11-02T09:19:06.747Z,53029.01
2022-11-02T09:21:40.154Z,53013.98
2022-11-02T09:24:06.400Z,52996.95
2022-11-02T09:25:21.650Z,53011.98
2022-11-02T09:27:58.914Z,53032.02
2022-11-02T09:29:03.300Z,53009.97
2022-11-02T09:30:23.721Z,52995.95
2022-11-02T09:35:18.202Z,53027.01
2022-11-02T09:40:29.541Z,53013.98
2022-11-02T09:43:04.354Z,53013.98
2022-11-02T09:45:29.722Z,53009.97
2022-11-02T09:46:32.492Z,53015.98
2022-11-02T09:48:57.039Z,53030.02
2022-11-02T09:50:17.998Z,53029.01
2022-11-02T09:51:28.369Z,52996.95
2022-11-02T09:52:48.645Z,53007.97
2022-11-02T09:53:57.395Z,53026.01
2022-11-02T09:55:06.507Z,53008.97
2022-11-02T09:56:12.962Z,53055.07
2022-11-02T09:57:32.540Z,53003.96
2022-11-02T10:00:09.869Z,53024.00
2022-11-02T10:02:42.460Z,53012.98
2022-11-02T10:03:54.759Z,53026.01
2022-11-02T10:05:01.980Z,53011.98
2022-11-02T10:06:14.030Z,53045.04
2022-11-02T10:07:18.216Z,52985.92
2022-11-02T10:08:21.495Z,53021.00
2022-11-02T10:09:38.005Z,53028.01
2022-11-02T10:12:04.209Z,53034.02
2022-11-02T10:13:08.695Z,52995.95
2022-11-02T10:15:37.061Z,53003.96
2022-11-02T10:16:57.155Z,52988.93
2022-11-02T10:22:03.863Z,53030.02
2022-11-02T10:23:17.614Z,53021.00
2022-11-02T10:25:48.714Z,53014.98
2022-11-02T10:27:11.542Z,53011.98
2022-11-02T10:32:17.343Z,52994.94
2022-11-02T10:33:28.431Z,52998.95
2022-11-02T10:34:37.664Z,52999.95
2022-11-02T10:36:04.290Z,52989.93
2022-11-02T10:45:03.416Z,52988.93
2022-11-02T10:46:12.104Z,53032.02
2022-11-02T10:51:22.192Z,53011.98
2022-11-02T10:52:25.580Z,53059.07
2022-11-02T10:53:42.109Z,53035.02
2022-11-02T10:56:15.030Z,53007.97
2022-11-02T10:58:43.033Z,53016.99
2022-11-02T11:02:34.550Z,53022.00
2022-11-02T11:06:29.226Z,53013.98
2022-11-02T11:10:21.303Z,53010.98
2022-11-02T11:11:24.794Z,53038.03
2022-11-02T11:16:19.630Z,53006.97
2022-11-02T11:20:38.866Z,53013.98
2022-11-02T11:25:54.375Z,53034.02
2022-11-02T11:27:03.814Z,53050.05
2022-11-02T11:28:07.326Z,53019.99
2022-11-02T11:29:11.093Z,53038.03
2022-11-02T11:30:46.308Z,53041.04
2022-11-02T11:31:36.456Z,53031.02
2022-11-02T11:34:10.249Z,53005.96
2022-11-02T11:35:16.162Z,53006.97
2022-11-02T11:36:30.503Z,53038.03
2022-11-02T11:40:21.575Z,53019.99
2022-11-02T11:41:28.992Z,53006.97
2022-11-02T11:42:35.223Z,53022.00
2022-11-02T11:43:43.812Z,53046.05
2022-11-02T11:46:11.849Z,53038.03
2022-11-02T11:47:22.689Z,53026.01
2022-11-02T11:48:37.020Z,53024.00
2022-11-02T11:51:08.838Z,53013.98
2022-11-02T11:54:57.986Z,53043.04
2022-11-02T11:57:26.393Z,53016.99
2022-11-02T11:58:33.476Z,53046.05
2022-11-02T11:59:36.009Z,53057.07
2022-11-02T12:00:39.982Z,53031.02
2022-11-02T12:03:06.991Z,53028.01
2022-11-02T12:04:10.165Z,53032.02
2022-11-02T12:05:32.280Z,53010.98
2022-11-02T12:07:57.108Z,53048.05
2022-11-02T12:09:05.438Z,53032.02
2022-11-02T12:11:28.523Z,53042.04
2022-11-02T12:12:31.369Z,53048.05
2022-11-02T12:13:36.877Z,53001.96
2022-11-02T12:16:00.241Z,53034.02
2022-11-02T12:17:02.935Z,53046.05
2022-11-02T12:18:10.063Z,53070.10
2022-11-02T12:20:43.237Z,53016.99
2022-11-02T12:21:45.745Z,53019.99
2022-11-02T12:22:48.891Z,53052.06
2022-11-02T12:23:58.317Z,53068.09
2022-11-02T12:25:02.350Z,53032.02
2022-11-02T12:28:56.535Z,53028.01
2022-11-02T12:31:25.064Z,53036.03
2022-11-02T12:32:27.514Z,53049.05
2022-11-02T12:33:31.124Z,53049.05
2022-11-02T12:34:33.859Z,53033.02
2022-11-02T12:35:45.920Z,53050.05
2022-11-02T12:37:31.280Z,53011.98
2022-11-02T12:37:58.653Z,53007.97
2022-11-02T12:41:30.082Z,53100.16
2022-11-02T12:43:54.200Z,53043.04
2022-11-02T12:45:01.761Z,53031.02
2022-11-02T12:47:24.843Z,53064.08
2022-11-02T12:48:37.068Z,53009.97
2022-11-02T12:49:39.990Z,53052.06
2022-11-02T12:50:42.814Z,53048.05
2022-11-02T12:51:49.045Z,53060.07
2022-11-02T12:54:12.589Z,53094.14
2022-11-02T12:55:17.392Z,53108.17
2022-11-02T12:56:27.778Z,53060.07
2022-11-02T13:00:13.008Z,53078.11
2022-11-02T13:01:21.851Z,53041.04
2022-11-02T13:02:28.887Z,53062.08
2022-11-02T13:03:49.136Z,53050.05
2022-11-02T13:04:51.458Z,53053.06
2022-11-02T13:05:53.855Z,53067.09
2022-11-02T13:06:56.746Z,53062.08
2022-11-02T13:07:59.704Z,53038.03
2022-11-02T13:09:02.397Z,53074.11
2022-11-02T13:11:36.979Z,53069.09
2022-11-02T13:12:39.446Z,53064.08
2022-11-02T13:13:47.438Z,53065.09
2022-11-02T13:14:49.940Z,53080.12
2022-11-02T13:15:52.287Z,53060.07
2022-11-02T13:16:55.575Z,53077.11
2022-11-02T13:20:46.573Z,53068.09
2022-11-02T13:21:49.032Z,53108.17
2022-11-02T13:26:57.654Z,53093.14
2022-11-02T13:28:02.663Z,53080.12
2022-11-02T13:29:12.691Z,53081.12
2022-11-02T13:30:16.881Z,53103.16
2022-11-02T13:31:19.575Z,53071.10
2022-11-02T13:33:46.936Z,53088.13
2022-11-02T13:36:18.867Z,53082.12
2022-11-02T13:38:42.927Z,53101.16
2022-11-02T13:41:06.053Z,53104.16
2022-11-02T13:42:14.050Z,53101.16
2022-11-02T13:43:20.579Z,53089.14
2022-11-02T13:44:23.140Z,53126.21
2022-11-02T13:45:26.747Z,53103.16
2022-11-02T13:46:30.849Z,53094.14
2022-11-02T13:47:35.231Z,53068.09
2022-11-02T13:48:37.946Z,53101.16
2022-11-02T13:49:42.171Z,53067.09
2022-11-02T13:50:55.346Z,53084.12
2022-11-02T13:52:12.226Z,53112.18
2022-11-02T13:53:13.587Z,53100.16
2022-11-02T13:54:16.409Z,53114.19
2022-11-02T13:55:19.212Z,53075.11
2022-11-02T13:56:23.453Z,53096.15
2022-11-02T13:57:31.182Z,53094.14
2022-11-02T13:58:45.419Z,53104.16
2022-11-02T13:59:48.153Z,53077.11
2022-11-02T14:01:00.115Z,53088.13
2022-11-02T14:02:07.508Z,53075.11
2022-11-02T14:03:10.494Z,53114.19
2022-11-02T14:04:24.669Z,53089.14
2022-11-02T14:05:37.685Z,53078.11
2022-11-02T14:08:03.060Z,53086.13
2022-11-02T14:09:06.254Z,53088.13
2022-11-02T14:10:09.401Z,53109.18
2022-11-02T14:11:13.326Z,53094.14
2022-11-02T14:12:16.121Z,53080.12
2022-11-02T14:13:23.305Z,53106.17
2022-11-02T14:14:25.763Z,53096.15
2022-11-02T14:16:59.848Z,53074.11
2022-11-02T14:19:22.911Z,53140.24
2022-11-02T14:21:55.846Z,53081.12
2022-11-02T14:22:58.647Z,53121.20
2022-11-02T14:24:01.434Z,53087.13
2022-11-02T14:25:06.843Z,53092.14
2022-11-02T14:27:31.775Z,53112.18
2022-11-02T14:28:40.479Z,53082.12
2022-11-02T14:29:43.201Z,53124.21
2022-11-02T14:30:47.977Z,53081.12
2022-11-02T14:31:50.736Z,53100.16
2022-11-02T14:34:14.184Z,53108.17
2022-11-02T14:35:34.951Z,53138.23
2022-11-02T14:36:42.083Z,53088.13
2022-11-02T14:37:45.191Z,53098.15
2022-11-02T14:38:49.264Z,53120.20
2022-11-02T14:39:55.340Z,53106.17
2022-11-02T14:43:41.445Z,53096.15
2022-11-02T14:44:53.837Z,53108.17
2022-11-02T14:47:21.015Z,53102.16
2022-11-02T14:48:26.145Z,53134.23
2022-11-02T14:49:28.971Z,53125.21
2022-11-02T14:51:53.042Z,53117.19
2022-11-02T14:52:55.723Z,53122.20
2022-11-02T14:54:03.804Z,53166.29
2022-11-02T14:55:16.485Z,53103.16
2022-11-02T14:56:19.082Z,53150.26
2022-11-02T14:57:28.363Z,53133.23
2022-11-02T14:58:36.569Z,53107.17
2022-11-02T15:01:01.553Z,53122.20
2022-11-02T15:02:13.475Z,53128.21
2022-11-02T15:06:03.455Z,53155.27
2022-11-02T15:09:53.666Z,53146.25
2022-11-02T15:10:56.363Z,53152.27
2022-11-02T15:11:59.054Z,53141.24
2022-11-02T15:13:05.323Z,53194.35
2022-11-02T15:14:09.730Z,53178.32
2022-11-02T15:15:13.953Z,53162.29
2022-11-02T15:16:18.390Z,53156.27
2022-11-02T15:17:26.439Z,53167.30
2022-11-02T15:19:52.565Z,53167.30
2022-11-02T15:23:43.431Z,53188.34
2022-11-02T15:24:52.841Z,53189.34
2022-11-02T15:26:00.252Z,53192.35
2022-11-02T15:27:12.469Z,53184.33
2022-11-02T15:32:23.006Z,53193.35
2022-11-02T15:34:48.940Z,53230.43
2022-11-02T15:36:01.018Z,53210.39
2022-11-02T15:37:03.745Z,53186.34
2022-11-02T15:38:20.869Z,53175.31
2022-11-02T15:39:22.886Z,53176.32
2022-11-02T15:40:25.431Z,53184.33
2022-11-02T15:41:28.102Z,53209.38
2022-11-02T15:44:57.186Z,53199.36
2022-11-02T15:46:08.174Z,53175.31